sensor_id;sensor_type;location;lat;lon;timestamp;P1;durP1;ratioP1;P2;durP2;ratioP2
80175;SDS011;69501;42.124;24.722;2023-05-02T00:00:38;4.35;;;4.07;;
80175;SDS011;69501;42.124;24.722;2023-05-02T00:03:04;4.90;;;4.50;;
80175;SDS011;69501;42.124;24.722;2023-05-02T00:05:30;5.07;;;4.60;;
80175;SDS011;69501;42.124;24.722;2023-05-02T00:07:56;4.80;;;4.40;;
80175;SDS011;69501;42.124;24.722;2023-05-02T00:10:21;4.60;;;4.30;;
80175;SDS011;69501;42.124;24.722;2023-05-02T00:12:47;4.75;;;4.35;;
80175;SDS011;69501;42.124;24.722;2023-05-02T00:15:13;4.53;;;4.13;;
80175;SDS011;69501;42.124;24.722;2023-05-02T00:17:39;5.47;;;4.93;;
80175;SDS011;69501;42.124;24.722;2023-05-02T00:20:09;5.78;;;5.28;;
80175;SDS011;69501;42.124;24.722;2023-05-02T00:22:35;5.53;;;5.00;;
80175;SDS011;69501;42.124;24.722;2023-05-02T00:25:01;7.35;;;6.43;;
80175;SDS011;69501;42.124;24.722;2023-05-02T00:27:28;7.57;;;6.88;;
80175;SDS011;69501;42.124;24.722;2023-05-02T00:29:55;6.45;;;5.93;;
80175;SDS011;69501;42.124;24.722;2023-05-02T00:32:22;6.47;;;5.85;;
80175;SDS011;69501;42.124;24.722;2023-05-02T00:34:47;6.80;;;6.20;;
80175;SDS011;69501;42.124;24.722;2023-05-02T00:37:13;6.07;;;5.57;;
80175;SDS011;69501;42.124;24.722;2023-05-02T00:39:39;6.68;;;6.00;;
80175;SDS011;69501;42.124;24.722;2023-05-02T00:42:04;10.85;;;9.77;;
80175;SDS011;69501;42.124;24.722;2023-05-02T00:44:30;11.13;;;10.07;;
80175;SDS011;69501;42.124;24.722;2023-05-02T00:46:56;9.68;;;8.80;;
80175;SDS011;69501;42.124;24.722;2023-05-02T00:49:25;10.18;;;8.68;;
80175;SDS011;69501;42.124;24.722;2023-05-02T00:51:50;10.77;;;9.20;;
80175;SDS011;69501;42.124;24.722;2023-05-02T00:54:18;9.80;;;8.80;;
80175;SDS011;69501;42.124;24.722;2023-05-02T00:56:43;11.38;;;10.23;;
80175;SDS011;69501;42.124;24.722;2023-05-02T00:59:10;12.70;;;11.23;;
80175;SDS011;69501;42.124;24.722;2023-05-02T01:05:04;9.82;;;8.68;;
80175;SDS011;69501;42.124;24.722;2023-05-02T01:11:02;7.30;;;6.70;;
80175;SDS011;69501;42.124;24.722;2023-05-02T01:13:38;7.30;;;6.47;;
80175;SDS011;69501;42.124;24.722;2023-05-02T01:16:08;7.80;;;7.13;;
80175;SDS011;69501;42.124;24.722;2023-05-02T01:18:37;13.25;;;8.93;;
80175;SDS011;69501;42.124;24.722;2023-05-02T01:21:06;12.48;;;10.32;;
80175;SDS011;69501;42.124;24.722;2023-05-02T01:26:29;9.63;;;7.90;;
80175;SDS011;69501;42.124;24.722;2023-05-02T01:31:35;7.38;;;6.65;;
80175;SDS011;69501;42.124;24.722;2023-05-02T01:34:04;8.35;;;6.75;;
80175;SDS011;69501;42.124;24.722;2023-05-02T01:36:34;8.02;;;7.43;;
80175;SDS011;69501;42.124;24.722;2023-05-02T01:39:01;11.48;;;10.25;;
80175;SDS011;69501;42.124;24.722;2023-05-02T01:41:31;11.75;;;10.60;;
80175;SDS011;69501;42.124;24.722;2023-05-02T01:43:58;13.52;;;11.77;;
80175;SDS011;69501;42.124;24.722;2023-05-02T01:46:29;11.40;;;10.27;;
80175;SDS011;69501;42.124;24.722;2023-05-02T01:48:57;9.38;;;8.57;;
80175;SDS011;69501;42.124;24.722;2023-05-02T01:51:32;9.15;;;8.30;;
80175;SDS011;69501;42.124;24.722;2023-05-02T01:54:01;7.03;;;6.35;;
80175;SDS011;69501;42.124;24.722;2023-05-02T01:56:32;6.95;;;5.82;;
80175;SDS011;69501;42.124;24.722;2023-05-02T01:59:01;6.18;;;5.68;;
80175;SDS011;69501;42.124;24.722;2023-05-02T02:01:29;6.40;;;5.38;;
80175;SDS011;69501;42.124;24.722;2023-05-02T02:03:55;5.93;;;5.32;;
80175;SDS011;69501;42.124;24.722;2023-05-02T02:06:22;5.65;;;5.25;;
80175;SDS011;69501;42.124;24.722;2023-05-02T02:08:48;7.70;;;6.00;;
80175;SDS011;69501;42.124;24.722;2023-05-02T02:11:16;6.05;;;5.47;;
80175;SDS011;69501;42.124;24.722;2023-05-02T02:13:52;6.78;;;6.18;;
80175;SDS011;69501;42.124;24.722;2023-05-02T02:16:24;6.05;;;5.45;;
80175;SDS011;69501;42.124;24.722;2023-05-02T02:18:55;5.93;;;5.40;;
80175;SDS011;69501;42.124;24.722;2023-05-02T02:21:27;4.55;;;4.13;;
80175;SDS011;69501;42.124;24.722;2023-05-02T02:23:56;6.22;;;4.72;;
80175;SDS011;69501;42.124;24.722;2023-05-02T02:26:25;5.22;;;4.70;;
80175;SDS011;69501;42.124;24.722;2023-05-02T02:28:51;5.80;;;4.88;;
80175;SDS011;69501;42.124;24.722;2023-05-02T02:31:17;4.93;;;4.55;;
80175;SDS011;69501;42.124;24.722;2023-05-02T02:33:42;7.30;;;4.40;;
80175;SDS011;69501;42.124;24.722;2023-05-02T02:36:14;4.63;;;3.97;;
80175;SDS011;69501;42.124;24.722;2023-05-02T02:38:49;5.10;;;4.68;;
80175;SDS011;69501;42.124;24.722;2023-05-02T02:41:30;4.63;;;4.32;;
80175;SDS011;69501;42.124;24.722;2023-05-02T02:44:09;4.97;;;4.57;;
80175;SDS011;69501;42.124;24.722;2023-05-02T02:46:50;5.10;;;4.72;;
80175;SDS011;69501;42.124;24.722;2023-05-02T02:52:34;6.85;;;4.47;;
80175;SDS011;69501;42.124;24.722;2023-05-02T02:55:19;4.97;;;4.50;;
80175;SDS011;69501;42.124;24.722;2023-05-02T03:00:36;6.28;;;4.90;;
80175;SDS011;69501;42.124;24.722;2023-05-02T03:03:02;5.25;;;4.85;;
80175;SDS011;69501;42.124;24.722;2023-05-02T03:05:31;7.47;;;5.43;;
80175;SDS011;69501;42.124;24.722;2023-05-02T03:07:57;7.15;;;5.68;;
80175;SDS011;69501;42.124;24.722;2023-05-02T03:10:24;6.28;;;5.68;;
80175;SDS011;69501;42.124;24.722;2023-05-02T03:12:50;5.32;;;4.88;;
80175;SDS011;69501;42.124;24.722;2023-05-02T03:18:16;5.50;;;5.10;;
80175;SDS011;69501;42.124;24.722;2023-05-02T03:20:42;6.70;;;5.50;;
80175;SDS011;69501;42.124;24.722;2023-05-02T03:23:08;5.60;;;4.97;;
80175;SDS011;69501;42.124;24.722;2023-05-02T03:25:34;5.20;;;4.80;;
80175;SDS011;69501;42.124;24.722;2023-05-02T03:28:00;5.30;;;4.80;;
80175;SDS011;69501;42.124;24.722;2023-05-02T03:30:25;6.70;;;5.00;;
80175;SDS011;69501;42.124;24.722;2023-05-02T03:32:51;5.82;;;5.32;;
80175;SDS011;69501;42.124;24.722;2023-05-02T03:35:17;6.03;;;4.90;;
80175;SDS011;69501;42.124;24.722;2023-05-02T03:37:43;6.70;;;5.05;;
80175;SDS011;69501;42.124;24.722;2023-05-02T03:40:09;9.40;;;5.30;;
80175;SDS011;69501;42.124;24.722;2023-05-02T03:42:35;6.82;;;5.32;;
80175;SDS011;69501;42.124;24.722;2023-05-02T03:45:05;7.07;;;5.00;;
80175;SDS011;69501;42.124;24.722;2023-05-02T03:47:32;16.67;;;6.65;;
80175;SDS011;69501;42.124;24.722;2023-05-02T03:49:57;13.15;;;6.00;;
80175;SDS011;69501;42.124;24.722;2023-05-02T03:52:23;9.80;;;5.60;;
80175;SDS011;69501;42.124;24.722;2023-05-02T03:54:49;6.85;;;5.35;;
80175;SDS011;69501;42.124;24.722;2023-05-02T03:57:15;5.60;;;5.00;;
80175;SDS011;69501;42.124;24.722;2023-05-02T03:59:41;6.88;;;6.00;;
80175;SDS011;69501;42.124;24.722;2023-05-02T04:02:09;10.20;;;5.90;;
80175;SDS011;69501;42.124;24.722;2023-05-02T04:04:36;5.50;;;5.00;;
80175;SDS011;69501;42.124;24.722;2023-05-02T04:07:02;6.30;;;5.72;;
80175;SDS011;69501;42.124;24.722;2023-05-02T04:09:28;17.02;;;10.80;;
80175;SDS011;69501;42.124;24.722;2023-05-02T04:11:54;13.70;;;8.73;;
80175;SDS011;69501;42.124;24.722;2023-05-02T04:14:20;14.30;;;10.55;;
80175;SDS011;69501;42.124;24.722;2023-05-02T04:16:46;5.88;;;5.32;;
80175;SDS011;69501;42.124;24.722;2023-05-02T04:19:13;7.28;;;6.25;;
80175;SDS011;69501;42.124;24.722;2023-05-02T04:21:39;8.15;;;6.20;;
80175;SDS011;69501;42.124;24.722;2023-05-02T04:24:05;8.68;;;6.47;;
80175;SDS011;69501;42.124;24.722;2023-05-02T04:26:30;25.50;;;7.30;;
80175;SDS011;69501;42.124;24.722;2023-05-02T04:28:56;11.77;;;6.55;;
80175;SDS011;69501;42.124;24.722;2023-05-02T04:31:21;7.03;;;6.03;;
80175;SDS011;69501;42.124;24.722;2023-05-02T04:33:47;15.77;;;5.70;;
80175;SDS011;69501;42.124;24.722;2023-05-02T04:36:13;13.93;;;6.32;;
80175;SDS011;69501;42.124;24.722;2023-05-02T04:38:38;15.10;;;6.90;;
80175;SDS011;69501;42.124;24.722;2023-05-02T04:41:04;14.10;;;6.30;;
80175;SDS011;69501;42.124;24.722;2023-05-02T04:43:31;11.70;;;6.00;;
80175;SDS011;69501;42.124;24.722;2023-05-02T04:45:56;10.90;;;6.40;;
80175;SDS011;69501;42.124;24.722;2023-05-02T04:48:22;12.10;;;6.43;;
80175;SDS011;69501;42.124;24.722;2023-05-02T04:50:49;16.77;;;7.38;;
80175;SDS011;69501;42.124;24.722;2023-05-02T04:53:17;11.95;;;6.80;;
80175;SDS011;69501;42.124;24.722;2023-05-02T04:55:45;62.28;;;47.28;;
80175;SDS011;69501;42.124;24.722;2023-05-02T04:58:11;40.10;;;29.40;;
80175;SDS011;69501;42.124;24.722;2023-05-02T05:00:36;43.53;;;36.38;;
80175;SDS011;69501;42.124;24.722;2023-05-02T05:03:02;42.67;;;33.55;;
80175;SDS011;69501;42.124;24.722;2023-05-02T05:05:28;41.08;;;31.83;;
80175;SDS011;69501;42.124;24.722;2023-05-02T05:07:54;40.58;;;31.45;;
80175;SDS011;69501;42.124;24.722;2023-05-02T05:10:19;34.30;;;27.08;;
80175;SDS011;69501;42.124;24.722;2023-05-02T05:12:45;35.17;;;24.17;;
80175;SDS011;69501;42.124;24.722;2023-05-02T05:15:11;27.15;;;20.75;;
80175;SDS011;69501;42.124;24.722;2023-05-02T05:17:36;23.80;;;17.63;;
80175;SDS011;69501;42.124;24.722;2023-05-02T05:20:03;24.23;;;16.30;;
80175;SDS011;69501;42.124;24.722;2023-05-02T05:22:29;15.50;;;13.32;;
80175;SDS011;69501;42.124;24.722;2023-05-02T05:24:55;19.17;;;11.15;;
80175;SDS011;69501;42.124;24.722;2023-05-02T05:27:21;15.98;;;10.50;;
80175;SDS011;69501;42.124;24.722;2023-05-02T05:29:47;11.48;;;10.25;;
80175;SDS011;69501;42.124;24.722;2023-05-02T05:32:12;10.23;;;9.15;;
80175;SDS011;69501;42.124;24.722;2023-05-02T05:34:38;12.02;;;8.43;;
80175;SDS011;69501;42.124;24.722;2023-05-02T05:37:03;12.13;;;7.80;;
80175;SDS011;69501;42.124;24.722;2023-05-02T05:39:29;29.00;;;23.77;;
80175;SDS011;69501;42.124;24.722;2023-05-02T05:41:55;32.38;;;26.42;;
80175;SDS011;69501;42.124;24.722;2023-05-02T05:44:21;75.55;;;56.60;;
80175;SDS011;69501;42.124;24.722;2023-05-02T05:46:47;54.63;;;45.30;;
80175;SDS011;69501;42.124;24.722;2023-05-02T05:49:15;31.38;;;24.85;;
80175;SDS011;69501;42.124;24.722;2023-05-02T05:51:41;16.63;;;11.82;;
80175;SDS011;69501;42.124;24.722;2023-05-02T05:54:07;19.33;;;15.57;;
80175;SDS011;69501;42.124;24.722;2023-05-02T05:56:33;19.60;;;12.25;;
80175;SDS011;69501;42.124;24.722;2023-05-02T05:58:58;17.10;;;14.73;;
80175;SDS011;69501;42.124;24.722;2023-05-02T06:01:24;12.50;;;11.30;;
80175;SDS011;69501;42.124;24.722;2023-05-02T06:03:50;13.25;;;10.40;;
80175;SDS011;69501;42.124;24.722;2023-05-02T06:06:16;12.43;;;9.60;;
80175;SDS011;69501;42.124;24.722;2023-05-02T06:08:41;15.40;;;9.27;;
80175;SDS011;69501;42.124;24.722;2023-05-02T06:11:08;11.02;;;8.82;;
80175;SDS011;69501;42.124;24.722;2023-05-02T06:13:35;11.73;;;9.60;;
80175;SDS011;69501;42.124;24.722;2023-05-02T06:16:00;8.55;;;7.68;;
80175;SDS011;69501;42.124;24.722;2023-05-02T06:18:26;8.90;;;7.65;;
80175;SDS011;69501;42.124;24.722;2023-05-02T06:20:53;12.25;;;10.95;;
80175;SDS011;69501;42.124;24.722;2023-05-02T06:23:18;14.63;;;10.20;;
80175;SDS011;69501;42.124;24.722;2023-05-02T06:25:44;11.77;;;10.35;;
80175;SDS011;69501;42.124;24.722;2023-05-02T06:28:09;11.70;;;10.60;;
80175;SDS011;69501;42.124;24.722;2023-05-02T06:30:35;13.82;;;9.98;;
80175;SDS011;69501;42.124;24.722;2023-05-02T06:33:04;11.02;;;9.95;;
80175;SDS011;69501;42.124;24.722;2023-05-02T06:35:29;9.18;;;8.38;;
80175;SDS011;69501;42.124;24.722;2023-05-02T06:37:55;10.68;;;7.32;;
80175;SDS011;69501;42.124;24.722;2023-05-02T06:40:21;73.78;;;64.10;;
80175;SDS011;69501;42.124;24.722;2023-05-02T06:42:46;45.80;;;39.67;;
80175;SDS011;69501;42.124;24.722;2023-05-02T06:45:12;59.38;;;47.80;;
80175;SDS011;69501;42.124;24.722;2023-05-02T06:47:38;48.17;;;39.45;;
80175;SDS011;69501;42.124;24.722;2023-05-02T06:50:04;46.97;;;36.35;;
80175;SDS011;69501;42.124;24.722;2023-05-02T06:52:30;19.02;;;16.10;;
80175;SDS011;69501;42.124;24.722;2023-05-02T06:54:55;32.92;;;26.23;;
80175;SDS011;69501;42.124;24.722;2023-05-02T06:57:21;22.27;;;18.75;;
80175;SDS011;69501;42.124;24.722;2023-05-02T06:59:48;19.52;;;14.05;;
80175;SDS011;69501;42.124;24.722;2023-05-02T07:02:14;15.73;;;12.13;;
80175;SDS011;69501;42.124;24.722;2023-05-02T07:04:40;13.63;;;10.65;;
80175;SDS011;69501;42.124;24.722;2023-05-02T07:07:05;10.63;;;8.20;;
80175;SDS011;69501;42.124;24.722;2023-05-02T07:09:31;10.30;;;8.32;;
80175;SDS011;69501;42.124;24.722;2023-05-02T07:11:57;14.05;;;8.02;;
80175;SDS011;69501;42.124;24.722;2023-05-02T07:14:23;7.55;;;6.78;;
80175;SDS011;69501;42.124;24.722;2023-05-02T07:16:48;6.75;;;5.70;;
80175;SDS011;69501;42.124;24.722;2023-05-02T07:19:14;6.68;;;6.07;;
80175;SDS011;69501;42.124;24.722;2023-05-02T07:21:39;7.60;;;5.40;;
80175;SDS011;69501;42.124;24.722;2023-05-02T07:24:05;5.38;;;4.88;;
80175;SDS011;69501;42.124;24.722;2023-05-02T07:26:31;5.60;;;5.18;;
80175;SDS011;69501;42.124;24.722;2023-05-02T07:28:56;10.82;;;5.18;;
80175;SDS011;69501;42.124;24.722;2023-05-02T07:31:22;7.63;;;5.00;;
80175;SDS011;69501;42.124;24.722;2023-05-02T07:33:48;5.03;;;4.55;;
80175;SDS011;69501;42.124;24.722;2023-05-02T07:36:13;4.22;;;3.92;;
80175;SDS011;69501;42.124;24.722;2023-05-02T07:38:39;6.75;;;4.22;;
80175;SDS011;69501;42.124;24.722;2023-05-02T07:41:05;5.10;;;3.42;;
80175;SDS011;69501;42.124;24.722;2023-05-02T07:43:30;3.35;;;3.05;;
80175;SDS011;69501;42.124;24.722;2023-05-02T07:45:56;4.93;;;3.45;;
80175;SDS011;69501;42.124;24.722;2023-05-02T07:48:22;3.53;;;3.33;;
80175;SDS011;69501;42.124;24.722;2023-05-02T07:50:47;3.20;;;2.90;;
80175;SDS011;69501;42.124;24.722;2023-05-02T07:53:13;4.85;;;3.10;;
80175;SDS011;69501;42.124;24.722;2023-05-02T07:55:39;5.55;;;2.70;;
80175;SDS011;69501;42.124;24.722;2023-05-02T07:58:04;4.85;;;2.40;;
80175;SDS011;69501;42.124;24.722;2023-05-02T08:00:30;6.30;;;3.70;;
80175;SDS011;69501;42.124;24.722;2023-05-02T08:02:56;4.15;;;3.53;;
80175;SDS011;69501;42.124;24.722;2023-05-02T08:05:21;5.80;;;3.00;;
80175;SDS011;69501;42.124;24.722;2023-05-02T08:07:47;3.97;;;2.45;;
80175;SDS011;69501;42.124;24.722;2023-05-02T08:10:13;5.05;;;2.80;;
80175;SDS011;69501;42.124;24.722;2023-05-02T08:12:39;3.55;;;2.33;;
80175;SDS011;69501;42.124;24.722;2023-05-02T08:15:06;5.80;;;2.03;;
80175;SDS011;69501;42.124;24.722;2023-05-02T08:17:33;3.70;;;2.00;;
80175;SDS011;69501;42.124;24.722;2023-05-02T08:19:58;2.67;;;2.10;;
80175;SDS011;69501;42.124;24.722;2023-05-02T08:22:25;2.30;;;2.10;;
80175;SDS011;69501;42.124;24.722;2023-05-02T08:24:50;3.42;;;2.10;;
80175;SDS011;69501;42.124;24.722;2023-05-02T08:27:16;4.38;;;2.08;;
80175;SDS011;69501;42.124;24.722;2023-05-02T08:29:41;4.05;;;2.00;;
80175;SDS011;69501;42.124;24.722;2023-05-02T08:32:07;10.85;;;2.53;;
80175;SDS011;69501;42.124;24.722;2023-05-02T08:34:33;3.28;;;1.80;;
80175;SDS011;69501;42.124;24.722;2023-05-02T08:36:58;3.90;;;1.77;;
80175;SDS011;69501;42.124;24.722;2023-05-02T08:39:24;5.60;;;2.28;;
80175;SDS011;69501;42.124;24.722;2023-05-02T08:41:50;7.88;;;1.92;;
80175;SDS011;69501;42.124;24.722;2023-05-02T08:44:15;4.90;;;1.95;;
80175;SDS011;69501;42.124;24.722;2023-05-02T08:46:41;1.75;;;1.65;;
80175;SDS011;69501;42.124;24.722;2023-05-02T08:49:09;2.58;;;1.70;;
80175;SDS011;69501;42.124;24.722;2023-05-02T08:51:35;2.03;;;1.42;;
80175;SDS011;69501;42.124;24.722;2023-05-02T08:54:02;4.07;;;2.08;;
80175;SDS011;69501;42.124;24.722;2023-05-02T08:56:31;2.70;;;1.75;;
80175;SDS011;69501;42.124;24.722;2023-05-02T08:58:57;3.25;;;2.47;;
80175;SDS011;69501;42.124;24.722;2023-05-02T09:01:23;2.22;;;2.03;;
80175;SDS011;69501;42.124;24.722;2023-05-02T09:03:54;2.83;;;2.45;;
80175;SDS011;69501;42.124;24.722;2023-05-02T09:06:22;3.45;;;2.13;;
80175;SDS011;69501;42.124;24.722;2023-05-02T09:08:48;6.57;;;2.72;;
80175;SDS011;69501;42.124;24.722;2023-05-02T09:11:16;3.20;;;2.90;;
80175;SDS011;69501;42.124;24.722;2023-05-02T09:13:46;3.65;;;1.58;;
80175;SDS011;69501;42.124;24.722;2023-05-02T09:16:14;3.80;;;2.22;;
80175;SDS011;69501;42.124;24.722;2023-05-02T09:21:14;3.15;;;1.83;;
80175;SDS011;69501;42.124;24.722;2023-05-02T09:23:45;6.40;;;1.77;;
80175;SDS011;69501;42.124;24.722;2023-05-02T09:26:22;4.32;;;1.73;;
80175;SDS011;69501;42.124;24.722;2023-05-02T09:28:55;2.17;;;1.65;;
80175;SDS011;69501;42.124;24.722;2023-05-02T09:31:26;3.22;;;1.50;;
80175;SDS011;69501;42.124;24.722;2023-05-02T09:34:07;1.98;;;1.73;;
80175;SDS011;69501;42.124;24.722;2023-05-02T09:36:47;8.45;;;3.20;;
80175;SDS011;69501;42.124;24.722;2023-05-02T09:39:17;4.35;;;2.03;;
80175;SDS011;69501;42.124;24.722;2023-05-02T09:41:47;5.20;;;1.60;;
80175;SDS011;69501;42.124;24.722;2023-05-02T09:44:14;4.07;;;1.77;;
80175;SDS011;69501;42.124;24.722;2023-05-02T09:46:43;15.13;;;2.38;;
80175;SDS011;69501;42.124;24.722;2023-05-02T09:49:10;7.10;;;1.98;;
80175;SDS011;69501;42.124;24.722;2023-05-02T09:51:36;5.18;;;1.70;;
80175;SDS011;69501;42.124;24.722;2023-05-02T09:54:02;4.50;;;2.10;;
80175;SDS011;69501;42.124;24.722;2023-05-02T09:56:27;7.53;;;1.63;;
80175;SDS011;69501;42.124;24.722;2023-05-02T10:01:39;2.20;;;1.60;;
80175;SDS011;69501;42.124;24.722;2023-05-02T10:04:06;5.90;;;1.83;;
80175;SDS011;69501;42.124;24.722;2023-05-02T10:06:41;2.05;;;1.90;;
80175;SDS011;69501;42.124;24.722;2023-05-02T10:09:08;3.35;;;1.77;;
80175;SDS011;69501;42.124;24.722;2023-05-02T10:11:35;2.13;;;1.25;;
80175;SDS011;69501;42.124;24.722;2023-05-02T10:14:09;7.97;;;1.65;;
80175;SDS011;69501;42.124;24.722;2023-05-02T10:16:42;1.67;;;1.20;;
80175;SDS011;69501;42.124;24.722;2023-05-02T10:19:18;2.47;;;1.60;;
80175;SDS011;69501;42.124;24.722;2023-05-02T10:21:48;2.05;;;1.80;;
80175;SDS011;69501;42.124;24.722;2023-05-02T10:24:15;4.22;;;1.67;;
80175;SDS011;69501;42.124;24.722;2023-05-02T10:26:41;2.50;;;1.40;;
80175;SDS011;69501;42.124;24.722;2023-05-02T10:29:07;5.50;;;1.73;;
80175;SDS011;69501;42.124;24.722;2023-05-02T10:31:35;3.80;;;1.67;;
80175;SDS011;69501;42.124;24.722;2023-05-02T10:34:03;4.68;;;1.88;;
80175;SDS011;69501;42.124;24.722;2023-05-02T10:36:31;3.25;;;1.70;;
80175;SDS011;69501;42.124;24.722;2023-05-02T10:38:57;6.50;;;2.20;;
80175;SDS011;69501;42.124;24.722;2023-05-02T10:41:25;1.85;;;1.75;;
80175;SDS011;69501;42.124;24.722;2023-05-02T10:43:55;4.13;;;1.88;;
80175;SDS011;69501;42.124;24.722;2023-05-02T10:46:39;4.72;;;1.30;;
80175;SDS011;69501;42.124;24.722;2023-05-02T10:49:06;3.33;;;1.20;;
80175;SDS011;69501;42.124;24.722;2023-05-02T10:51:33;1.08;;;0.98;;
80175;SDS011;69501;42.124;24.722;2023-05-02T10:59:34;2.28;;;1.60;;
80175;SDS011;69501;42.124;24.722;2023-05-02T11:07:23;2.25;;;1.50;;
80175;SDS011;69501;42.124;24.722;2023-05-02T11:09:49;1.80;;;1.17;;
80175;SDS011;69501;42.124;24.722;2023-05-02T11:12:41;2.20;;;1.27;;
80175;SDS011;69501;42.124;24.722;2023-05-02T11:18:00;2.70;;;1.50;;
80175;SDS011;69501;42.124;24.722;2023-05-02T11:20:28;2.17;;;1.10;;
80175;SDS011;69501;42.124;24.722;2023-05-02T11:22:56;4.85;;;1.20;;
80175;SDS011;69501;42.124;24.722;2023-05-02T11:25:36;1.92;;;1.10;;
80175;SDS011;69501;42.124;24.722;2023-05-02T11:28:04;1.95;;;1.40;;
80175;SDS011;69501;42.124;24.722;2023-05-02T11:30:38;2.20;;;1.10;;
80175;SDS011;69501;42.124;24.722;2023-05-02T11:33:10;3.20;;;1.40;;
80175;SDS011;69501;42.124;24.722;2023-05-02T11:35:36;3.67;;;1.15;;
80175;SDS011;69501;42.124;24.722;2023-05-02T11:38:25;1.80;;;1.13;;
80175;SDS011;69501;42.124;24.722;2023-05-02T11:40:58;1.70;;;1.23;;
80175;SDS011;69501;42.124;24.722;2023-05-02T11:43:26;2.05;;;1.27;;
80175;SDS011;69501;42.124;24.722;2023-05-02T11:45:53;2.40;;;1.00;;
80175;SDS011;69501;42.124;24.722;2023-05-02T11:48:20;2.88;;;1.23;;
80175;SDS011;69501;42.124;24.722;2023-05-02T11:53:29;2.90;;;1.65;;
80175;SDS011;69501;42.124;24.722;2023-05-02T11:55:56;4.68;;;1.58;;
80175;SDS011;69501;42.124;24.722;2023-05-02T11:58:29;3.78;;;1.80;;
80175;SDS011;69501;42.124;24.722;2023-05-02T12:00:57;2.17;;;1.45;;
80175;SDS011;69501;42.124;24.722;2023-05-02T12:03:27;2.88;;;1.73;;
80175;SDS011;69501;42.124;24.722;2023-05-02T12:05:54;2.53;;;1.83;;
80175;SDS011;69501;42.124;24.722;2023-05-02T12:08:21;8.52;;;1.77;;
80175;SDS011;69501;42.124;24.722;2023-05-02T12:10:49;8.68;;;1.55;;
80175;SDS011;69501;42.124;24.722;2023-05-02T12:13:16;4.22;;;1.50;;
80175;SDS011;69501;42.124;24.722;2023-05-02T12:15:43;2.42;;;1.50;;
80175;SDS011;69501;42.124;24.722;2023-05-02T12:18:09;2.03;;;1.40;;
80175;SDS011;69501;42.124;24.722;2023-05-02T12:20:36;1.52;;;1.20;;
80175;SDS011;69501;42.124;24.722;2023-05-02T12:23:03;1.50;;;1.40;;
80175;SDS011;69501;42.124;24.722;2023-05-02T12:25:40;5.03;;;1.75;;
80175;SDS011;69501;42.124;24.722;2023-05-02T12:31:09;4.30;;;1.40;;
80175;SDS011;69501;42.124;24.722;2023-05-02T12:33:43;5.57;;;1.50;;
80175;SDS011;69501;42.124;24.722;2023-05-02T12:42:22;2.97;;;1.40;;
80175;SDS011;69501;42.124;24.722;2023-05-02T12:44:49;1.83;;;1.25;;
80175;SDS011;69501;42.124;24.722;2023-05-02T12:47:17;2.42;;;1.55;;
80175;SDS011;69501;42.124;24.722;2023-05-02T12:49:53;4.85;;;1.60;;
80175;SDS011;69501;42.124;24.722;2023-05-02T12:55:20;3.03;;;1.17;;
80175;SDS011;69501;42.124;24.722;2023-05-02T12:57:58;8.65;;;1.75;;
80175;SDS011;69501;42.124;24.722;2023-05-02T13:00:28;2.22;;;1.15;;
80175;SDS011;69501;42.124;24.722;2023-05-02T13:02:55;3.95;;;1.30;;
80175;SDS011;69501;42.124;24.722;2023-05-02T13:05:21;4.05;;;1.48;;
80175;SDS011;69501;42.124;24.722;2023-05-02T13:07:47;4.35;;;1.65;;
80175;SDS011;69501;42.124;24.722;2023-05-02T13:10:13;3.42;;;1.42;;
80175;SDS011;69501;42.124;24.722;2023-05-02T13:12:39;3.97;;;1.38;;
80175;SDS011;69501;42.124;24.722;2023-05-02T13:15:06;6.47;;;1.92;;
80175;SDS011;69501;42.124;24.722;2023-05-02T13:17:32;5.72;;;1.70;;
80175;SDS011;69501;42.124;24.722;2023-05-02T13:19:59;2.25;;;1.23;;
80175;SDS011;69501;42.124;24.722;2023-05-02T13:22:25;3.63;;;1.30;;
80175;SDS011;69501;42.124;24.722;2023-05-02T13:24:51;4.07;;;1.25;;
80175;SDS011;69501;42.124;24.722;2023-05-02T13:27:17;4.43;;;1.63;;
80175;SDS011;69501;42.124;24.722;2023-05-02T13:29:44;5.28;;;1.38;;
80175;SDS011;69501;42.124;24.722;2023-05-02T13:32:09;5.93;;;1.73;;
80175;SDS011;69501;42.124;24.722;2023-05-02T13:34:36;2.30;;;1.40;;
80175;SDS011;69501;42.124;24.722;2023-05-02T13:37:01;2.90;;;1.42;;
80175;SDS011;69501;42.124;24.722;2023-05-02T13:39:27;2.33;;;1.52;;
80175;SDS011;69501;42.124;24.722;2023-05-02T13:41:53;7.75;;;1.58;;
80175;SDS011;69501;42.124;24.722;2023-05-02T13:44:19;3.70;;;1.70;;
80175;SDS011;69501;42.124;24.722;2023-05-02T13:46:45;3.55;;;1.38;;
80175;SDS011;69501;42.124;24.722;2023-05-02T13:49:11;8.20;;;1.50;;
80175;SDS011;69501;42.124;24.722;2023-05-02T13:51:37;5.07;;;1.58;;
80175;SDS011;69501;42.124;24.722;2023-05-02T13:54:03;1.42;;;1.27;;
80175;SDS011;69501;42.124;24.722;2023-05-02T13:56:29;6.97;;;1.20;;
80175;SDS011;69501;42.124;24.722;2023-05-02T13:58:56;5.95;;;1.25;;
80175;SDS011;69501;42.124;24.722;2023-05-02T14:01:36;3.80;;;1.38;;
80175;SDS011;69501;42.124;24.722;2023-05-02T14:04:36;2.92;;;1.40;;
80175;SDS011;69501;42.124;24.722;2023-05-02T14:07:57;3.90;;;1.45;;
80175;SDS011;69501;42.124;24.722;2023-05-02T14:10:23;5.93;;;1.52;;
80175;SDS011;69501;42.124;24.722;2023-05-02T14:12:49;2.40;;;1.17;;
80175;SDS011;69501;42.124;24.722;2023-05-02T14:15:17;4.82;;;1.30;;
80175;SDS011;69501;42.124;24.722;2023-05-02T14:17:42;5.47;;;1.40;;
80175;SDS011;69501;42.124;24.722;2023-05-02T14:20:08;5.47;;;1.52;;
80175;SDS011;69501;42.124;24.722;2023-05-02T14:22:35;1.45;;;1.25;;
80175;SDS011;69501;42.124;24.722;2023-05-02T14:25:00;2.72;;;1.30;;
80175;SDS011;69501;42.124;24.722;2023-05-02T14:27:26;1.83;;;1.60;;
80175;SDS011;69501;42.124;24.722;2023-05-02T14:29:52;3.28;;;1.35;;
80175;SDS011;69501;42.124;24.722;2023-05-02T14:32:17;10.93;;;1.50;;
80175;SDS011;69501;42.124;24.722;2023-05-02T14:34:43;3.83;;;1.58;;
80175;SDS011;69501;42.124;24.722;2023-05-02T14:37:09;5.25;;;1.70;;
80175;SDS011;69501;42.124;24.722;2023-05-02T14:39:37;3.88;;;1.25;;
80175;SDS011;69501;42.124;24.722;2023-05-02T14:42:11;2.63;;;1.20;;
80175;SDS011;69501;42.124;24.722;2023-05-02T14:44:37;12.30;;;1.65;;
80175;SDS011;69501;42.124;24.722;2023-05-02T14:47:02;4.72;;;1.38;;
80175;SDS011;69501;42.124;24.722;2023-05-02T14:49:31;1.63;;;1.33;;
80175;SDS011;69501;42.124;24.722;2023-05-02T14:51:57;5.35;;;1.75;;
80175;SDS011;69501;42.124;24.722;2023-05-02T14:54:26;6.10;;;1.77;;
80175;SDS011;69501;42.124;24.722;2023-05-02T14:56:53;4.13;;;1.55;;
80175;SDS011;69501;42.124;24.722;2023-05-02T14:59:19;8.23;;;1.80;;
80175;SDS011;69501;42.124;24.722;2023-05-02T15:01:45;5.78;;;1.70;;
80175;SDS011;69501;42.124;24.722;2023-05-02T15:04:10;9.90;;;1.67;;
80175;SDS011;69501;42.124;24.722;2023-05-02T15:06:36;2.55;;;1.40;;
80175;SDS011;69501;42.124;24.722;2023-05-02T15:09:02;2.55;;;1.30;;
80175;SDS011;69501;42.124;24.722;2023-05-02T15:11:29;7.00;;;1.50;;
80175;SDS011;69501;42.124;24.722;2023-05-02T15:13:54;5.45;;;1.20;;
80175;SDS011;69501;42.124;24.722;2023-05-02T15:16:20;4.30;;;1.30;;
80175;SDS011;69501;42.124;24.722;2023-05-02T15:18:46;5.80;;;1.77;;
80175;SDS011;69501;42.124;24.722;2023-05-02T15:21:11;4.70;;;1.40;;
80175;SDS011;69501;42.124;24.722;2023-05-02T15:23:37;7.82;;;1.73;;
80175;SDS011;69501;42.124;24.722;2023-05-02T15:26:03;1.52;;;1.35;;